Washington, New Hampshire
Current Conditions -  °F | °C
As of 6:35 AM on Friday 24 Oct 2014 (Local Time) from KEEN Reporting Station
Overcast Overcast  
Wind Chill: 41°   Ceiling: 1200
Heat Index: 45°   Visibility: 10mi
Dew Point: 37°   Wind: 6mph
Humidity: 76%   Direction: 330°NNW
Pressure: 29.76"   Gusts: NA
Location:  43.18°N, 72.1°W
Report Text: KEEN 241035Z AUTO 33005KT 10SM OVC012 07/03 A2976 RMK AO1 P0001
Loading
Personal Weather Stations






























Interactive Weather Map
Tropical Storm Tracking
New forecast layout! Learn more

10-Day Weather Forecast

Advertisements
Track Severe Weather on mobile